createdAt,value
2018-10-19T00:02:19.704Z,7.64
2018-10-19T00:04:48.540Z,7.54
2018-10-19T00:07:18.562Z,7.38
2018-10-19T00:09:47.876Z,7.21
2018-10-19T00:12:18.547Z,7.21
2018-10-19T00:14:48.028Z,7.22
2018-10-19T00:17:17.019Z,7.26
2018-10-19T00:19:45.545Z,7.23
2018-10-19T00:22:14.784Z,7.28
2018-10-19T00:24:44.160Z,7.29
2018-10-19T00:27:13.105Z,7.32
2018-10-19T00:29:42.483Z,7.31
2018-10-19T00:32:13.020Z,7.18
2018-10-19T00:34:41.922Z,7.13
2018-10-19T00:37:10.849Z,7.17
2018-10-19T00:39:39.545Z,7.14
2018-10-19T00:42:08.503Z,7.00
2018-10-19T00:44:37.325Z,6.96
2018-10-19T00:47:06.312Z,6.97
2018-10-19T00:49:35.214Z,6.89
2018-10-19T00:52:04.237Z,6.83
2018-10-19T00:54:33.685Z,6.76
2018-10-19T00:57:03.537Z,6.80
2018-10-19T00:59:32.246Z,6.79
2018-10-19T01:02:01.030Z,6.83
2018-10-19T01:04:30.677Z,6.82
2018-10-19T01:06:59.733Z,6.82
2018-10-19T01:09:29.016Z,6.79
2018-10-19T01:11:58.060Z,6.73
2018-10-19T01:14:26.799Z,6.75
2018-10-19T01:16:55.858Z,6.79
2018-10-19T01:19:25.247Z,6.77
2018-10-19T01:21:55.401Z,6.73
2018-10-19T01:24:24.345Z,6.67
2018-10-19T01:26:53.076Z,6.68
2018-10-19T01:29:21.855Z,6.60
2018-10-19T01:31:51.099Z,6.60
2018-10-19T01:34:19.700Z,6.51
2018-10-19T01:36:48.523Z,6.53
2018-10-19T01:39:17.326Z,6.51
2018-10-19T01:41:46.060Z,6.50
2018-10-19T01:44:16.511Z,6.49
2018-10-19T01:46:49.950Z,6.47
2018-10-19T01:49:19.804Z,6.44
2018-10-19T01:51:48.893Z,6.43
2018-10-19T01:54:17.591Z,6.47
2018-10-19T01:56:46.961Z,6.48
2018-10-19T01:59:15.770Z,6.39
2018-10-19T02:01:45.223Z,6.32
2018-10-19T02:04:14.139Z,6.32
2018-10-19T02:06:43.087Z,6.33
2018-10-19T02:09:13.565Z,6.31
2018-10-19T02:11:42.186Z,6.28
2018-10-19T02:14:11.990Z,6.19
2018-10-19T02:16:41.031Z,6.14
2018-10-19T02:19:10.310Z,6.15
2018-10-19T02:21:39.016Z,6.13
2018-10-19T02:24:07.830Z,6.11
2018-10-19T02:26:36.539Z,6.12
2018-10-19T02:29:06.243Z,6.09
2018-10-19T02:31:35.530Z,6.07
2018-10-19T02:34:04.198Z,6.00
2018-10-19T02:36:33.950Z,6.02
2018-10-19T02:39:03.423Z,5.98
2018-10-19T02:41:32.894Z,5.86
2018-10-19T02:44:01.582Z,5.84
2018-10-19T02:46:30.433Z,5.85
2018-10-19T02:48:59.194Z,5.77
2018-10-19T02:51:28.301Z,5.72
2018-10-19T02:53:57.180Z,5.61
2018-10-19T02:56:26.716Z,5.56
2018-10-19T02:58:55.789Z,5.49
2018-10-19T03:01:25.032Z,5.46
2018-10-19T03:03:54.197Z,5.47
2018-10-19T03:06:23.084Z,5.43
2018-10-19T03:08:52.732Z,5.36
2018-10-19T03:11:21.545Z,5.41
2018-10-19T03:13:50.216Z,5.42
2018-10-19T03:16:19.512Z,5.46
2018-10-19T03:18:48.221Z,5.41
2018-10-19T03:21:18.047Z,5.39
2018-10-19T03:23:47.086Z,5.38
2018-10-19T03:26:16.181Z,5.38
2018-10-19T03:28:45.546Z,5.43
2018-10-19T03:31:14.766Z,5.46
2018-10-19T03:33:43.550Z,5.42
2018-10-19T03:36:13.126Z,5.43
2018-10-19T03:38:42.306Z,5.44
2018-10-19T03:41:11.027Z,5.36
2018-10-19T03:43:40.013Z,5.37
2018-10-19T03:46:08.664Z,5.30
2018-10-19T03:48:37.406Z,5.23
2018-10-19T03:51:07.489Z,5.25
2018-10-19T03:53:36.794Z,5.14
2018-10-19T03:56:05.862Z,4.99
2018-10-19T03:58:34.842Z,5.04
2018-10-19T04:01:04.606Z,4.98
2018-10-19T04:03:33.503Z,5.05
2018-10-19T04:06:02.766Z,5.11
2018-10-19T04:08:32.350Z,5.14
2018-10-19T04:11:01.381Z,5.09
2018-10-19T04:13:30.158Z,5.08
2018-10-19T04:15:59.824Z,5.07
2018-10-19T04:18:28.960Z,5.10
2018-10-19T04:20:57.803Z,5.10
2018-10-19T04:23:27.346Z,5.00
2018-10-19T04:25:56.611Z,4.94
2018-10-19T04:28:25.433Z,5.00
2018-10-19T04:30:55.117Z,4.94
2018-10-19T04:33:23.893Z,4.95
2018-10-19T04:35:53.433Z,4.91
2018-10-19T04:38:23.135Z,4.87
2018-10-19T04:40:53.043Z,4.86
2018-10-19T04:43:21.675Z,4.89
2018-10-19T04:45:50.502Z,4.89
2018-10-19T04:48:19.397Z,4.79
2018-10-19T04:50:48.049Z,4.72
2018-10-19T04:53:17.162Z,4.69
2018-10-19T04:55:46.312Z,4.71
2018-10-19T04:58:15.736Z,4.59
2018-10-19T05:00:44.728Z,4.50
2018-10-19T05:03:14.230Z,4.55
2018-10-19T05:05:42.878Z,4.46
2018-10-19T05:08:13.453Z,4.43
2018-10-19T05:10:42.461Z,4.45
2018-10-19T05:13:11.856Z,4.48
2018-10-19T05:15:41.388Z,4.47
2018-10-19T05:18:10.327Z,4.49
2018-10-19T05:20:39.540Z,4.47
2018-10-19T05:23:09.075Z,4.48
2018-10-19T05:25:38.154Z,4.46
2018-10-19T05:28:07.301Z,4.45
2018-10-19T05:30:36.066Z,4.48
2018-10-19T05:33:04.997Z,4.47
2018-10-19T05:35:33.836Z,4.46
2018-10-19T05:38:03.065Z,4.47
2018-10-19T05:40:31.932Z,4.41
2018-10-19T05:43:00.598Z,4.43
2018-10-19T05:45:29.772Z,4.46
2018-10-19T05:47:59.082Z,4.47
2018-10-19T05:50:27.976Z,4.46
2018-10-19T05:52:57.425Z,4.50
2018-10-19T05:55:26.698Z,4.43
2018-10-19T05:57:55.814Z,4.46
2018-10-19T06:00:26.001Z,4.47
2018-10-19T06:02:55.336Z,4.46
2018-10-19T06:05:24.575Z,4.44
2018-10-19T06:07:53.439Z,4.42
2018-10-19T06:10:22.124Z,4.41
2018-10-19T06:12:51.676Z,4.49
2018-10-19T06:15:20.438Z,4.54
2018-10-19T06:17:49.643Z,4.64
2018-10-19T06:20:18.677Z,4.72
2018-10-19T06:22:48.108Z,4.76
2018-10-19T06:25:16.772Z,4.73
2018-10-19T06:27:45.493Z,4.73
2018-10-19T06:30:14.787Z,4.76
2018-10-19T06:32:44.170Z,4.87
2018-10-19T06:35:13.259Z,4.88
2018-10-19T06:37:42.433Z,4.92
2018-10-19T06:40:11.349Z,5.05
2018-10-19T06:42:41.081Z,5.21
2018-10-19T06:45:11.733Z,5.38
2018-10-19T06:47:41.529Z,5.57
2018-10-19T06:50:12.849Z,5.72
2018-10-19T06:52:42.797Z,5.73
2018-10-19T06:55:14.968Z,5.87
2018-10-19T06:57:43.967Z,6.11
2018-10-19T07:00:13.777Z,6.13
2018-10-19T07:02:42.667Z,6.28
2018-10-19T07:05:11.632Z,6.34
2018-10-19T07:07:40.936Z,6.67
2018-10-19T07:10:10.736Z,6.89
2018-10-19T07:12:40.990Z,7.12
2018-10-19T07:15:11.523Z,7.26
2018-10-19T07:17:40.383Z,7.46
2018-10-19T07:20:10.451Z,7.63
2018-10-19T07:22:39.412Z,7.84
2018-10-19T07:25:08.605Z,8.06
2018-10-19T07:27:38.551Z,8.27
2018-10-19T07:30:07.502Z,8.46
2018-10-19T07:32:37.187Z,8.58
2018-10-19T07:35:08.465Z,8.59
2018-10-19T07:37:38.309Z,8.52
2018-10-19T07:40:07.642Z,8.71
2018-10-19T07:42:37.173Z,9.15
2018-10-19T07:45:06.677Z,9.36
2018-10-19T07:47:35.507Z,9.64
2018-10-19T07:50:04.919Z,9.95
2018-10-19T07:52:33.813Z,10.31
2018-10-19T07:55:03.052Z,10.67
2018-10-19T07:57:32.481Z,11.08
2018-10-19T08:00:01.485Z,11.47
2018-10-19T08:02:31.308Z,12.01
2018-10-19T08:05:00.079Z,12.65
2018-10-19T08:07:29.202Z,13.45
2018-10-19T08:09:58.566Z,14.09
2018-10-19T08:12:27.577Z,14.50
2018-10-19T08:14:57.022Z,15.12
2018-10-19T08:17:26.972Z,15.49
2018-10-19T08:19:55.877Z,16.32
2018-10-19T08:22:24.692Z,16.47
2018-10-19T08:24:54.512Z,17.08
2018-10-19T08:27:23.926Z,17.42
2018-10-19T08:29:54.546Z,17.60
2018-10-19T08:32:23.369Z,18.13
2018-10-19T08:34:52.497Z,18.92
2018-10-19T08:37:21.206Z,18.98
2018-10-19T08:39:50.119Z,19.29
2018-10-19T08:42:19.213Z,19.77
2018-10-19T08:44:48.292Z,20.58
2018-10-19T08:47:17.812Z,20.98
2018-10-19T08:49:47.704Z,20.70
2018-10-19T08:52:16.797Z,20.79
2018-10-19T08:54:45.622Z,21.02
2018-10-19T08:57:14.609Z,20.75
2018-10-19T08:59:43.844Z,22.28
2018-10-19T09:02:12.937Z,23.07
2018-10-19T09:04:42.773Z,23.75
2018-10-19T09:07:12.156Z,23.39
2018-10-19T09:09:40.837Z,23.72
2018-10-19T09:12:10.199Z,23.82
2018-10-19T09:14:51.818Z,24.15
2018-10-19T09:17:20.903Z,24.27
2018-10-19T09:19:51.086Z,25.21
2018-10-19T09:22:20.935Z,24.76
2018-10-19T09:24:50.259Z,25.61
2018-10-19T09:27:19.308Z,25.28
2018-10-19T09:29:48.402Z,25.75
2018-10-19T09:32:17.774Z,25.56
2018-10-19T09:34:46.604Z,25.98
2018-10-19T09:37:15.829Z,25.66
2018-10-19T09:39:45.124Z,26.53
2018-10-19T09:42:13.985Z,27.38
2018-10-19T09:44:43.489Z,27.58
2018-10-19T09:47:12.403Z,27.77
2018-10-19T09:49:41.764Z,27.17
2018-10-19T09:52:11.111Z,28.09
2018-10-19T09:54:40.247Z,28.87
2018-10-19T09:57:09.581Z,29.84
2018-10-19T09:59:38.399Z,29.90
2018-10-19T10:02:07.984Z,30.24
2018-10-19T10:04:37.137Z,30.47
2018-10-19T10:07:06.582Z,30.08
2018-10-19T10:09:35.575Z,29.92
2018-10-19T10:12:04.668Z,29.49
2018-10-19T10:14:33.643Z,28.42
2018-10-19T10:17:02.750Z,28.36
2018-10-19T10:19:32.403Z,29.57
2018-10-19T10:22:01.370Z,29.87
2018-10-19T10:24:30.304Z,29.68
2018-10-19T10:26:59.110Z,29.53
2018-10-19T10:29:27.897Z,29.59
2018-10-19T10:31:56.697Z,30.15
2018-10-19T10:34:25.724Z,29.64
2018-10-19T10:36:54.796Z,29.96
2018-10-19T10:39:24.319Z,30.28
2018-10-19T10:41:53.698Z,29.44
2018-10-19T10:44:22.840Z,29.17
2018-10-19T10:46:52.148Z,29.57
2018-10-19T10:49:21.503Z,30.16
2018-10-19T10:51:51.605Z,29.91
2018-10-19T10:54:20.552Z,31.46
2018-10-19T10:56:50.273Z,29.87
2018-10-19T10:59:19.863Z,30.62
2018-10-19T11:01:49.949Z,31.85
2018-10-19T11:04:19.674Z,31.69
2018-10-19T11:06:49.818Z,32.79
2018-10-19T11:09:19.524Z,32.34
2018-10-19T11:11:49.167Z,32.05
2018-10-19T11:14:19.572Z,31.08
2018-10-19T11:16:48.880Z,30.76
2018-10-19T11:19:17.953Z,32.13
2018-10-19T11:21:47.459Z,31.84
2018-10-19T11:24:17.523Z,30.85
2018-10-19T11:26:48.603Z,30.04
2018-10-19T11:29:17.728Z,29.37
2018-10-19T11:31:46.780Z,29.34
2018-10-19T11:34:15.760Z,29.50
2018-10-19T11:36:44.472Z,29.56
2018-10-19T11:39:13.549Z,30.19
2018-10-19T11:41:42.273Z,29.10
2018-10-19T11:44:11.903Z,28.51
2018-10-19T11:46:41.319Z,28.27
2018-10-19T11:49:09.962Z,28.04
2018-10-19T11:51:39.617Z,27.94
2018-10-19T11:54:08.800Z,28.92
2018-10-19T11:56:38.415Z,28.33
2018-10-19T11:59:07.333Z,28.04
2018-10-19T12:01:37.024Z,27.19
2018-10-19T12:04:06.812Z,26.87
2018-10-19T12:06:35.781Z,26.31
2018-10-19T12:09:08.290Z,25.80
2018-10-19T12:11:37.645Z,25.85
2018-10-19T12:14:06.501Z,26.47
2018-10-19T12:16:35.679Z,27.23
2018-10-19T12:19:05.261Z,28.20
2018-10-19T12:21:34.143Z,28.41
2018-10-19T12:24:03.355Z,28.93
2018-10-19T12:26:32.715Z,27.97
2018-10-19T12:29:01.943Z,27.37
2018-10-19T12:31:31.016Z,27.50
2018-10-19T12:34:00.425Z,28.09
2018-10-19T12:36:29.577Z,29.33
2018-10-19T12:38:58.627Z,30.23
2018-10-19T12:41:27.680Z,30.48
2018-10-19T12:43:57.303Z,30.98
2018-10-19T12:46:41.065Z,29.44
2018-10-19T12:49:10.529Z,28.64
2018-10-19T12:51:39.638Z,28.58
2018-10-19T12:54:08.875Z,28.64
2018-10-19T12:56:37.770Z,29.33
2018-10-19T12:59:07.302Z,29.36
2018-10-19T13:01:36.410Z,29.04
2018-10-19T13:04:06.081Z,28.11
2018-10-19T13:06:34.784Z,26.77
2018-10-19T13:09:06.124Z,26.51
2018-10-19T13:11:35.235Z,26.19
2018-10-19T13:14:04.303Z,25.98
2018-10-19T13:16:33.540Z,25.49
2018-10-19T13:19:02.803Z,25.66
2018-10-19T13:21:31.968Z,24.99
2018-10-19T13:24:01.401Z,24.37
2018-10-19T13:26:30.313Z,24.25
2018-10-19T13:28:59.756Z,24.26
2018-10-19T13:31:28.896Z,23.95
2018-10-19T13:33:57.738Z,24.07
2018-10-19T13:36:26.422Z,24.15
2018-10-19T13:38:55.644Z,24.15
2018-10-19T13:41:24.551Z,24.42
2018-10-19T13:43:53.339Z,24.43
2018-10-19T13:46:22.221Z,24.03
2018-10-19T13:48:51.225Z,23.81
2018-10-19T13:51:20.030Z,23.97
2018-10-19T13:53:48.973Z,23.90
2018-10-19T13:56:18.176Z,24.71
2018-10-19T13:58:47.379Z,25.21
2018-10-19T14:01:16.256Z,25.47
2018-10-19T14:03:45.345Z,25.57
2018-10-19T14:06:15.097Z,25.19
2018-10-19T14:08:45.328Z,25.05
2018-10-19T14:11:14.120Z,24.41
2018-10-19T14:13:42.764Z,24.13
2018-10-19T14:16:11.644Z,23.54
2018-10-19T14:18:41.258Z,23.37
2018-10-19T14:21:10.694Z,23.03
2018-10-19T14:23:39.625Z,23.04
2018-10-19T14:26:09.380Z,23.01
2018-10-19T14:28:38.114Z,22.73
2018-10-19T14:31:08.169Z,22.74
2018-10-19T14:33:37.669Z,22.58
2018-10-19T14:36:06.567Z,22.52
2018-10-19T14:38:36.135Z,22.20
2018-10-19T14:41:05.250Z,21.62
2018-10-19T14:43:34.433Z,21.48
2018-10-19T14:46:03.762Z,21.41
2018-10-19T14:48:32.851Z,21.21
2018-10-19T14:51:01.794Z,21.24
2018-10-19T14:53:30.669Z,21.05
2018-10-19T14:55:59.343Z,20.65
2018-10-19T14:58:28.787Z,20.69
2018-10-19T15:00:57.644Z,20.62
2018-10-19T15:03:26.564Z,20.53
2018-10-19T15:05:55.424Z,20.45
2018-10-19T15:08:24.918Z,20.48
2018-10-19T15:10:54.020Z,20.32
2018-10-19T15:13:23.195Z,20.27
2018-10-19T15:15:52.253Z,20.14
2018-10-19T15:18:21.570Z,20.03
2018-10-19T15:20:50.417Z,19.94
2018-10-19T15:23:19.779Z,19.66
2018-10-19T15:25:49.439Z,19.59
2018-10-19T15:28:18.523Z,19.58
2018-10-19T15:30:47.845Z,19.53
2018-10-19T15:33:17.023Z,19.38
2018-10-19T15:35:46.291Z,19.23
2018-10-19T15:38:15.311Z,19.20
2018-10-19T15:40:44.196Z,19.11
2018-10-19T15:43:12.965Z,19.03
2018-10-19T15:45:42.076Z,18.88
2018-10-19T15:48:12.163Z,18.76
2018-10-19T15:50:41.115Z,18.59
2018-10-19T15:53:11.264Z,18.34
2018-10-19T15:55:40.161Z,18.26
2018-10-19T15:58:09.155Z,18.21
2018-10-19T16:00:38.386Z,17.98
2018-10-19T16:03:07.661Z,17.71
2018-10-19T16:05:36.763Z,17.51
2018-10-19T16:08:06.015Z,17.32
2018-10-19T16:10:35.625Z,17.18
2018-10-19T16:13:04.652Z,16.98
2018-10-19T16:15:33.568Z,16.77
2018-10-19T16:18:04.690Z,16.67
2018-10-19T16:20:33.687Z,16.53
2018-10-19T16:23:03.276Z,16.45
2018-10-19T16:25:32.399Z,16.38
2018-10-19T16:28:01.785Z,16.30
2018-10-19T16:30:32.088Z,16.21
2018-10-19T16:33:02.259Z,16.10
2018-10-19T16:35:31.217Z,15.98
2018-10-19T16:38:00.741Z,15.82
2018-10-19T16:40:29.715Z,15.71
2018-10-19T16:42:59.212Z,15.53
2018-10-19T16:45:28.206Z,15.39
2018-10-19T16:47:57.369Z,14.98
2018-10-19T16:50:26.225Z,14.82
2018-10-19T16:52:55.367Z,14.53
2018-10-19T16:55:24.246Z,14.23
2018-10-19T16:57:54.408Z,14.09
2018-10-19T17:00:23.492Z,13.95
2018-10-19T17:02:52.860Z,13.74
2018-10-19T17:05:22.054Z,13.58
2018-10-19T17:07:51.685Z,13.47
2018-10-19T17:10:20.592Z,13.33
2018-10-19T17:12:49.436Z,13.39
2018-10-19T17:15:19.840Z,13.40
2018-10-19T17:17:49.510Z,13.37
2018-10-19T17:20:18.532Z,13.30
2018-10-19T17:22:47.733Z,13.12
2018-10-19T17:25:17.099Z,12.99
2018-10-19T17:27:45.940Z,12.78
2018-10-19T17:30:15.383Z,12.68
2018-10-19T17:32:44.369Z,12.66
2018-10-19T17:35:13.784Z,12.69
2018-10-19T17:37:42.990Z,12.71
2018-10-19T17:40:12.167Z,12.54
2018-10-19T17:42:41.341Z,12.55
2018-10-19T17:45:11.637Z,12.49
2018-10-19T17:47:42.700Z,12.44
2018-10-19T17:50:12.523Z,12.46
2018-10-19T17:52:42.215Z,12.40
2018-10-19T17:55:12.905Z,12.27
2018-10-19T17:57:42.083Z,12.25
2018-10-19T18:00:13.327Z,12.23
2018-10-19T18:02:43.090Z,11.95
2018-10-19T18:05:12.154Z,11.81
2018-10-19T18:07:41.483Z,11.83
2018-10-19T18:10:13.508Z,11.80
2018-10-19T18:12:42.998Z,11.78
2018-10-19T18:15:13.421Z,11.78
2018-10-19T18:17:43.198Z,11.71
2018-10-19T18:20:12.507Z,11.65
2018-10-19T18:22:42.889Z,11.58
2018-10-19T18:25:12.907Z,11.43
2018-10-19T18:27:43.062Z,11.34
2018-10-19T18:30:13.170Z,11.19
2018-10-19T18:32:43.298Z,11.06
2018-10-19T18:35:12.819Z,11.02
2018-10-19T18:37:42.223Z,10.99
2018-10-19T18:40:12.345Z,11.01
2018-10-19T18:42:41.545Z,10.88
2018-10-19T18:45:10.958Z,10.87
2018-10-19T18:47:40.835Z,10.78
2018-10-19T18:50:10.129Z,10.81
2018-10-19T18:52:39.903Z,10.78
2018-10-19T18:55:08.870Z,10.70
2018-10-19T18:57:37.674Z,10.68
2018-10-19T19:00:08.917Z,10.65
2018-10-19T19:02:37.993Z,10.50
2018-10-19T19:05:07.453Z,10.50
2018-10-19T19:07:37.832Z,10.43
2018-10-19T19:10:11.296Z,10.27
2018-10-19T19:12:40.840Z,10.22
2018-10-19T19:15:10.485Z,10.22
2018-10-19T19:17:39.901Z,9.99
2018-10-19T19:20:14.512Z,9.97
2018-10-19T19:22:43.723Z,9.96
2018-10-19T19:25:18.572Z,9.98
2018-10-19T19:27:48.322Z,9.83
2018-10-19T19:30:18.022Z,9.63
2018-10-19T19:32:51.952Z,9.64
2018-10-19T19:35:20.898Z,9.69
2018-10-19T19:37:50.065Z,9.58
2018-10-19T19:40:19.588Z,9.51
2018-10-19T19:42:54.207Z,9.49
2018-10-19T19:45:24.130Z,9.52
2018-10-19T19:47:58.422Z,9.40
2018-10-19T19:50:27.495Z,9.33
2018-10-19T19:52:56.526Z,9.36
2018-10-19T19:55:26.251Z,9.40
2018-10-19T19:57:55.208Z,9.27
2018-10-19T20:00:24.256Z,9.23
2018-10-19T20:02:53.408Z,9.20
2018-10-19T20:05:22.457Z,9.17
2018-10-19T20:07:51.673Z,9.18
2018-10-19T20:10:21.197Z,9.21
2018-10-19T20:12:50.261Z,9.14
2018-10-19T20:15:19.800Z,9.08
2018-10-19T20:17:48.781Z,9.00
2018-10-19T20:20:18.917Z,9.03
2018-10-19T20:22:48.028Z,8.87
2018-10-19T20:25:17.604Z,8.85
2018-10-19T20:27:46.773Z,8.80
2018-10-19T20:30:15.930Z,8.83
2018-10-19T20:32:45.345Z,8.58
2018-10-19T20:35:14.515Z,8.51
2018-10-19T20:37:43.678Z,8.56
2018-10-19T20:40:12.691Z,8.52
2018-10-19T20:42:42.232Z,8.47
2018-10-19T20:45:11.216Z,8.47
2018-10-19T20:47:40.171Z,8.42
2018-10-19T20:50:10.542Z,8.49
2018-10-19T20:52:39.368Z,8.45
2018-10-19T20:55:10.016Z,8.43
2018-10-19T20:57:38.987Z,8.42
2018-10-19T21:00:08.994Z,8.28
2018-10-19T21:02:37.922Z,8.11
2018-10-19T21:05:07.683Z,8.14
2018-10-19T21:07:36.773Z,8.19
2018-10-19T21:10:07.507Z,8.11
2018-10-19T21:12:36.729Z,8.01
2018-10-19T21:15:06.493Z,8.06
2018-10-19T21:17:36.315Z,8.02
2018-10-19T21:20:05.452Z,7.97
2018-10-19T21:22:34.799Z,7.86
2018-10-19T21:25:03.788Z,7.85
2018-10-19T21:27:32.697Z,7.80
2018-10-19T21:30:01.903Z,7.76
2018-10-19T21:32:30.754Z,7.82
2018-10-19T21:34:59.561Z,7.83
2018-10-19T21:37:28.631Z,7.84
2018-10-19T21:39:57.954Z,7.68
2018-10-19T21:42:26.998Z,7.74
2018-10-19T21:44:56.319Z,7.65
2018-10-19T21:47:25.903Z,7.55
2018-10-19T21:49:54.903Z,7.58
2018-10-19T21:52:24.039Z,7.54
2018-10-19T21:54:53.088Z,7.45
2018-10-19T21:57:22.239Z,7.37
2018-10-19T21:59:51.847Z,7.39
2018-10-19T22:02:20.942Z,7.37
2018-10-19T22:04:49.766Z,7.32
2018-10-19T22:07:19.244Z,7.34
2018-10-19T22:09:48.617Z,7.37
2018-10-19T22:12:17.386Z,7.36
2018-10-19T22:14:46.916Z,7.37
2018-10-19T22:17:16.322Z,7.22
2018-10-19T22:19:45.493Z,7.23
2018-10-19T22:22:15.218Z,7.17
2018-10-19T22:24:44.616Z,7.17
2018-10-19T22:27:14.131Z,7.08
2018-10-19T22:29:42.950Z,6.95
2018-10-19T22:32:11.974Z,6.87
2018-10-19T22:34:40.783Z,6.94
2018-10-19T22:37:10.094Z,6.86
2018-10-19T22:39:38.999Z,6.87
2018-10-19T22:42:08.004Z,6.87
2018-10-19T22:44:37.669Z,6.86
2018-10-19T22:47:06.950Z,6.81
2018-10-19T22:49:36.087Z,6.88
2018-10-19T22:52:05.603Z,6.69
2018-10-19T22:54:34.961Z,6.67
2018-10-19T22:57:03.795Z,6.68
2018-10-19T22:59:32.598Z,6.74
2018-10-19T23:02:02.232Z,6.70
2018-10-19T23:04:31.141Z,6.60
2018-10-19T23:07:00.832Z,6.63
2018-10-19T23:09:31.993Z,6.66
2018-10-19T23:12:02.218Z,6.61
2018-10-19T23:14:31.247Z,6.50
2018-10-19T23:17:00.512Z,6.43
2018-10-19T23:19:29.782Z,6.36
2018-10-19T23:21:58.579Z,6.25
2018-10-19T23:24:28.341Z,6.21
2018-10-19T23:26:57.567Z,6.27
2018-10-19T23:29:26.565Z,6.28
2018-10-19T23:31:56.308Z,6.24
2018-10-19T23:34:25.461Z,6.32
2018-10-19T23:37:02.172Z,6.23
2018-10-19T23:39:31.375Z,6.06
2018-10-19T23:42:00.633Z,5.91
2018-10-19T23:44:29.773Z,5.91
2018-10-19T23:46:58.569Z,5.95
2018-10-19T23:49:27.448Z,5.86
2018-10-19T23:51:56.604Z,5.91
2018-10-19T23:54:25.635Z,5.91
2018-10-19T23:56:54.678Z,5.99
2018-10-19T23:59:24.121Z,6.00
